createdAt,value
2018-09-26T00:00:40.969Z,10.68
2018-09-26T00:01:40.943Z,10.62
2018-09-26T00:02:40.931Z,10.76
2018-09-26T00:03:40.903Z,10.64
2018-09-26T00:04:40.887Z,10.39
2018-09-26T00:05:40.873Z,10.38
2018-09-26T00:06:40.853Z,10.35
2018-09-26T00:07:40.834Z,10.38
2018-09-26T00:08:40.820Z,10.39
2018-09-26T00:09:40.798Z,10.34
2018-09-26T00:10:40.780Z,10.46
2018-09-26T00:11:40.765Z,10.42
2018-09-26T00:12:40.744Z,10.57
2018-09-26T00:13:40.737Z,10.58
2018-09-26T00:14:40.718Z,10.65
2018-09-26T00:15:40.693Z,10.70
2018-09-26T00:16:40.676Z,10.61
2018-09-26T00:17:40.657Z,10.70
2018-09-26T00:18:40.641Z,10.60
2018-09-26T00:19:40.620Z,10.67
2018-09-26T00:20:40.607Z,10.61
2018-09-26T00:21:40.591Z,10.72
2018-09-26T00:22:40.569Z,10.70
2018-09-26T00:23:40.554Z,10.64
2018-09-26T00:24:40.542Z,10.68
2018-09-26T00:25:40.520Z,10.65
2018-09-26T00:26:40.498Z,10.76
2018-09-26T00:27:40.485Z,10.68
2018-09-26T00:28:40.462Z,10.62
2018-09-26T00:29:40.447Z,10.61
2018-09-26T00:30:40.426Z,10.61
2018-09-26T00:31:40.406Z,10.54
2018-09-26T00:32:40.391Z,10.58
2018-09-26T00:33:40.387Z,10.54
2018-09-26T00:34:40.354Z,10.43
2018-09-26T00:35:40.384Z,10.42
2018-09-26T00:36:40.319Z,10.39
2018-09-26T00:37:40.349Z,10.42
2018-09-26T00:38:40.292Z,10.39
2018-09-26T00:39:40.270Z,10.41
2018-09-26T00:40:40.249Z,10.38
2018-09-26T00:41:40.230Z,10.43
2018-09-26T00:42:40.211Z,10.41
2018-09-26T00:43:40.196Z,10.39
2018-09-26T00:44:40.177Z,10.35
2018-09-26T00:45:40.157Z,10.35
2018-09-26T00:46:40.144Z,10.39
2018-09-26T00:47:40.125Z,10.42
2018-09-26T00:48:40.109Z,10.43
2018-09-26T00:49:40.091Z,10.42
2018-09-26T00:50:40.071Z,10.55
2018-09-26T00:51:40.051Z,10.55
2018-09-26T00:52:40.035Z,10.52
2018-09-26T00:53:40.019Z,10.52
2018-09-26T00:54:40.006Z,10.54
2018-09-26T00:55:39.983Z,10.52
2018-09-26T00:56:39.964Z,10.61
2018-09-26T00:57:39.944Z,10.45
2018-09-26T00:58:39.942Z,10.42
2018-09-26T00:59:39.907Z,10.36
2018-09-26T01:00:39.896Z,10.35
2018-09-26T01:01:39.887Z,10.39
2018-09-26T01:02:39.860Z,10.20
2018-09-26T01:03:39.839Z,10.42
2018-09-26T01:04:39.823Z,10.27
2018-09-26T01:05:39.803Z,10.45
2018-09-26T01:06:39.784Z,10.38
2018-09-26T01:07:39.764Z,10.45
2018-09-26T01:08:39.749Z,10.43
2018-09-26T01:09:39.729Z,10.34
2018-09-26T01:10:39.716Z,10.39
2018-09-26T01:11:39.698Z,10.28
2018-09-26T01:12:39.681Z,10.34
2018-09-26T01:13:39.660Z,10.36
2018-09-26T01:14:39.639Z,10.36
2018-09-26T01:15:39.624Z,10.36
2018-09-26T01:16:39.604Z,10.09
2018-09-26T01:17:39.585Z,10.10
2018-09-26T01:18:39.569Z,10.18
2018-09-26T01:19:39.555Z,10.26
2018-09-26T01:20:39.533Z,10.26
2018-09-26T01:21:39.517Z,10.36
2018-09-26T01:22:39.506Z,10.24
2018-09-26T01:23:39.479Z,10.24
2018-09-26T01:24:39.468Z,10.26
2018-09-26T01:25:39.445Z,10.28
2018-09-26T01:26:39.425Z,10.24
2018-09-26T01:27:39.410Z,10.28
2018-09-26T01:28:39.392Z,10.26
2018-09-26T01:29:39.369Z,10.27
2018-09-26T01:30:39.353Z,10.36
2018-09-26T01:31:39.334Z,10.24
2018-09-26T01:32:39.322Z,10.34
2018-09-26T01:33:39.299Z,10.30
2018-09-26T01:34:39.284Z,10.17
2018-09-26T01:35:39.263Z,10.06
2018-09-26T01:36:39.369Z,10.09
2018-09-26T01:37:39.227Z,10.12
2018-09-26T01:38:39.209Z,10.17
2018-09-26T01:39:39.192Z,10.17
2018-09-26T01:40:39.174Z,10.16
2018-09-26T01:41:39.154Z,10.24
2018-09-26T01:42:39.136Z,10.09
2018-09-26T01:43:39.116Z,10.08
2018-09-26T01:44:39.101Z,9.98
2018-09-26T01:45:39.083Z,10.12
2018-09-26T01:46:39.071Z,10.09
2018-09-26T01:47:39.049Z,10.14
2018-09-26T01:48:39.029Z,10.12
2018-09-26T01:49:39.009Z,10.09
2018-09-26T01:50:38.992Z,10.02
2018-09-26T01:51:38.972Z,9.99
2018-09-26T01:52:38.957Z,9.88
2018-09-26T01:53:38.937Z,9.85
2018-09-26T01:54:38.920Z,9.88
2018-09-26T01:55:38.900Z,9.84
2018-09-26T01:56:38.885Z,10.01
2018-09-26T01:57:38.866Z,10.02
2018-09-26T01:58:38.847Z,10.08
2018-09-26T01:59:38.829Z,10.21
2018-09-26T02:00:38.811Z,10.18
2018-09-26T02:01:38.792Z,10.26
2018-09-26T02:02:38.777Z,10.23
2018-09-26T02:03:38.756Z,10.06
2018-09-26T02:04:38.738Z,10.12
2018-09-26T02:05:38.718Z,10.18
2018-09-26T02:06:38.701Z,10.24
2018-09-26T02:07:38.682Z,10.24
2018-09-26T02:08:38.667Z,10.14
2018-09-26T02:09:38.644Z,10.09
2018-09-26T02:10:38.626Z,9.99
2018-09-26T02:11:38.611Z,9.99
2018-09-26T02:12:38.595Z,10.06
2018-09-26T02:13:38.572Z,10.05
2018-09-26T02:14:38.555Z,9.98
2018-09-26T02:15:38.538Z,10.10
2018-09-26T02:16:38.518Z,10.10
2018-09-26T02:17:38.499Z,10.08
2018-09-26T02:18:38.485Z,10.03
2018-09-26T02:19:38.463Z,9.99
2018-09-26T02:20:38.444Z,9.96
2018-09-26T02:21:38.425Z,9.98
2018-09-26T02:22:38.414Z,9.98
2018-09-26T02:23:38.407Z,9.96
2018-09-26T02:24:38.372Z,9.96
2018-09-26T02:25:38.355Z,9.93
2018-09-26T02:26:38.337Z,9.91
2018-09-26T02:27:38.315Z,9.90
2018-09-26T02:28:38.299Z,9.69
2018-09-26T02:29:38.285Z,9.73
2018-09-26T02:30:38.268Z,9.73
2018-09-26T02:31:38.246Z,9.62
2018-09-26T02:32:38.225Z,9.62
2018-09-26T02:33:38.212Z,9.63
2018-09-26T02:34:38.190Z,9.60
2018-09-26T02:35:38.173Z,9.41
2018-09-26T02:36:38.154Z,9.45
2018-09-26T02:37:38.136Z,9.44
2018-09-26T02:38:38.124Z,9.42
2018-09-26T02:39:38.099Z,9.44
2018-09-26T02:40:38.083Z,9.44
2018-09-26T02:41:38.062Z,9.42
2018-09-26T02:42:38.046Z,9.52
2018-09-26T02:43:38.078Z,9.55
2018-09-26T02:44:38.010Z,9.65
2018-09-26T02:45:37.988Z,9.72
2018-09-26T02:46:37.971Z,9.70
2018-09-26T02:47:37.950Z,9.84
2018-09-26T02:48:37.933Z,9.81
2018-09-26T02:49:37.914Z,9.90
2018-09-26T02:50:37.897Z,9.90
2018-09-26T02:51:37.890Z,9.88
2018-09-26T02:52:37.857Z,9.99
2018-09-26T02:53:37.848Z,10.01
2018-09-26T02:54:37.825Z,9.98
2018-09-26T02:55:37.841Z,9.96
2018-09-26T02:56:37.784Z,9.96
2018-09-26T02:57:37.768Z,9.90
2018-09-26T02:58:37.752Z,9.91
2018-09-26T02:59:37.731Z,9.91
2018-09-26T03:00:37.715Z,9.98
2018-09-26T03:01:37.711Z,10.03
2018-09-26T03:02:37.683Z,10.08
2018-09-26T03:03:37.659Z,10.09
2018-09-26T03:04:37.644Z,10.14
2018-09-26T03:05:37.627Z,10.10
2018-09-26T03:06:37.604Z,10.18
2018-09-26T03:07:37.583Z,10.18
2018-09-26T03:08:37.568Z,10.24
2018-09-26T03:09:37.550Z,10.24
2018-09-26T03:10:37.531Z,10.23
2018-09-26T03:11:37.512Z,10.23
2018-09-26T03:12:37.496Z,10.14
2018-09-26T03:13:37.478Z,10.10
2018-09-26T03:14:37.458Z,9.96
2018-09-26T03:15:37.439Z,9.99
2018-09-26T03:16:37.420Z,10.02
2018-09-26T03:17:37.421Z,9.99
2018-09-26T03:18:37.387Z,10.08
2018-09-26T03:19:37.365Z,10.12
2018-09-26T03:20:37.344Z,10.17
2018-09-26T03:21:37.328Z,10.03
2018-09-26T03:22:37.310Z,10.09
2018-09-26T03:23:37.292Z,9.99
2018-09-26T03:24:37.277Z,9.99
2018-09-26T03:25:37.257Z,9.91
2018-09-26T03:26:37.238Z,9.88
2018-09-26T03:27:37.225Z,9.90
2018-09-26T03:28:37.199Z,9.96
2018-09-26T03:29:37.184Z,9.98
2018-09-26T03:30:37.165Z,9.98
2018-09-26T03:31:37.149Z,9.99
2018-09-26T03:32:37.128Z,10.02
2018-09-26T03:33:37.143Z,9.98
2018-09-26T03:34:37.096Z,9.98
2018-09-26T03:35:37.071Z,9.96
2018-09-26T03:36:37.056Z,9.93
2018-09-26T03:37:37.037Z,9.93
2018-09-26T03:38:37.016Z,9.91
2018-09-26T03:39:36.999Z,9.88
2018-09-26T03:40:36.987Z,9.75
2018-09-26T03:41:36.969Z,9.62
2018-09-26T03:42:36.945Z,9.65
2018-09-26T03:43:36.923Z,9.65
2018-09-26T03:44:36.906Z,9.63
2018-09-26T03:45:36.886Z,9.60
2018-09-26T03:46:36.869Z,9.60
2018-09-26T03:47:36.852Z,9.51
2018-09-26T03:48:36.831Z,9.59
2018-09-26T03:49:36.815Z,9.45
2018-09-26T03:50:36.796Z,9.41
2018-09-26T03:51:36.776Z,9.37
2018-09-26T03:52:36.757Z,9.32
2018-09-26T03:53:36.743Z,9.37
2018-09-26T03:54:36.723Z,9.24
2018-09-26T03:55:36.702Z,9.26
2018-09-26T03:56:36.686Z,9.23
2018-09-26T03:57:36.665Z,9.18
2018-09-26T03:58:36.649Z,9.12
2018-09-26T03:59:36.628Z,9.12
2018-09-26T04:00:36.615Z,9.14
2018-09-26T04:01:36.591Z,9.08
2018-09-26T04:02:36.572Z,9.19
2018-09-26T04:03:36.553Z,9.01
2018-09-26T04:04:36.534Z,9.24
2018-09-26T04:05:36.543Z,9.19
2018-09-26T04:06:36.507Z,9.30
2018-09-26T04:07:36.492Z,9.32
2018-09-26T04:08:36.460Z,9.32
2018-09-26T04:09:36.444Z,9.27
2018-09-26T04:10:36.424Z,9.33
2018-09-26T04:11:36.405Z,9.30
2018-09-26T04:12:36.425Z,9.29
2018-09-26T04:13:36.373Z,9.32
2018-09-26T04:14:36.349Z,9.40
2018-09-26T04:15:36.340Z,9.42
2018-09-26T04:16:36.315Z,9.44
2018-09-26T04:17:36.297Z,9.42
2018-09-26T04:18:36.277Z,9.52
2018-09-26T04:19:36.256Z,9.55
2018-09-26T04:20:36.236Z,9.57
2018-09-26T04:21:36.220Z,9.36
2018-09-26T04:22:36.211Z,9.32
2018-09-26T04:23:36.189Z,9.18
2018-09-26T04:24:36.169Z,9.15
2018-09-26T04:25:36.143Z,9.16
2018-09-26T04:26:36.294Z,9.24
2018-09-26T04:27:36.134Z,9.27
2018-09-26T04:28:36.092Z,9.23
2018-09-26T04:29:36.070Z,9.23
2018-09-26T04:30:36.096Z,9.34
2018-09-26T04:31:36.032Z,9.30
2018-09-26T04:32:36.049Z,9.32
2018-09-26T04:33:36.045Z,9.30
2018-09-26T04:34:35.983Z,9.44
2018-09-26T04:35:35.959Z,9.48
2018-09-26T04:36:35.941Z,9.42
2018-09-26T04:37:35.926Z,9.42
2018-09-26T04:38:35.994Z,9.41
2018-09-26T04:39:35.885Z,9.37
2018-09-26T04:40:35.865Z,9.26
2018-09-26T04:41:35.858Z,9.14
2018-09-26T04:42:35.834Z,9.09
2018-09-26T04:43:35.811Z,9.14
2018-09-26T04:44:35.791Z,9.12
2018-09-26T04:45:35.777Z,9.19
2018-09-26T04:46:35.756Z,9.23
2018-09-26T04:47:35.736Z,9.12
2018-09-26T04:48:35.718Z,9.11
2018-09-26T04:49:35.700Z,9.11
2018-09-26T04:50:35.685Z,9.14
2018-09-26T04:51:35.660Z,9.04
2018-09-26T04:52:35.648Z,9.09
2018-09-26T04:53:35.629Z,9.14
2018-09-26T04:54:35.616Z,9.11
2018-09-26T04:55:35.587Z,9.19
2018-09-26T04:56:35.569Z,9.19
2018-09-26T04:57:35.552Z,9.26
2018-09-26T04:58:35.533Z,9.30
2018-09-26T04:59:35.516Z,9.32
2018-09-26T05:00:35.496Z,9.27
2018-09-26T05:01:35.490Z,9.42
2018-09-26T05:02:35.458Z,9.27
2018-09-26T05:03:35.445Z,9.32
2018-09-26T05:04:35.424Z,9.34
2018-09-26T05:05:35.403Z,9.30
2018-09-26T05:06:35.383Z,9.29
2018-09-26T05:07:35.375Z,9.27
2018-09-26T05:08:35.347Z,9.34
2018-09-26T05:09:35.329Z,9.30
2018-09-26T05:10:35.318Z,9.44
2018-09-26T05:11:35.296Z,9.47
2018-09-26T05:12:35.276Z,9.44
2018-09-26T05:13:35.255Z,9.55
2018-09-26T05:14:35.361Z,9.63
2018-09-26T05:15:35.218Z,9.66
2018-09-26T05:16:35.201Z,9.69
2018-09-26T05:17:35.192Z,9.78
2018-09-26T05:18:35.165Z,9.73
2018-09-26T05:19:35.155Z,9.78
2018-09-26T05:20:35.132Z,9.80
2018-09-26T05:21:35.117Z,9.80
2018-09-26T05:22:35.091Z,9.69
2018-09-26T05:23:35.072Z,9.75
2018-09-26T05:24:35.051Z,9.77
2018-09-26T05:25:35.033Z,9.73
2018-09-26T05:26:35.017Z,9.72
2018-09-26T05:27:35.013Z,9.65
2018-09-26T05:28:34.980Z,9.72
2018-09-26T05:29:34.959Z,9.72
2018-09-26T05:30:34.940Z,9.75
2018-09-26T05:31:34.920Z,9.67
2018-09-26T05:32:34.908Z,9.80
2018-09-26T05:33:34.888Z,9.77
2018-09-26T05:34:34.869Z,9.62
2018-09-26T05:35:34.849Z,9.66
2018-09-26T05:36:34.832Z,9.73
2018-09-26T05:37:34.808Z,9.80
2018-09-26T05:38:34.795Z,9.88
2018-09-26T05:39:34.774Z,9.81
2018-09-26T05:40:34.755Z,9.77
2018-09-26T05:41:34.746Z,9.66
2018-09-26T05:42:34.724Z,9.60
2018-09-26T05:43:34.700Z,9.63
2018-09-26T05:44:34.680Z,9.60
2018-09-26T05:45:34.662Z,9.54
2018-09-26T05:46:34.648Z,9.29
2018-09-26T05:47:34.626Z,9.33
2018-09-26T05:48:34.614Z,9.29
2018-09-26T05:49:34.589Z,9.24
2018-09-26T05:50:34.584Z,9.08
2018-09-26T05:51:34.560Z,9.15
2018-09-26T05:52:34.531Z,9.15
2018-09-26T05:53:34.602Z,9.06
2018-09-26T05:54:34.493Z,9.08
2018-09-26T05:55:34.477Z,9.04
2018-09-26T05:56:34.461Z,9.14
2018-09-26T05:57:34.438Z,9.18
2018-09-26T05:58:34.419Z,9.23
2018-09-26T05:59:34.461Z,9.23
2018-09-26T06:00:34.380Z,9.16
2018-09-26T06:01:34.363Z,9.12
2018-09-26T06:02:34.345Z,9.06
2018-09-26T06:03:34.329Z,9.12
2018-09-26T06:04:34.307Z,9.06
2018-09-26T06:05:34.362Z,9.04
2018-09-26T06:06:34.274Z,9.08
2018-09-26T06:07:34.259Z,9.15
2018-09-26T06:08:34.232Z,9.22
2018-09-26T06:09:34.214Z,9.27
2018-09-26T06:10:34.197Z,9.29
2018-09-26T06:11:34.174Z,9.27
2018-09-26T06:12:34.163Z,9.29
2018-09-26T06:13:34.136Z,9.29
2018-09-26T06:14:34.128Z,9.42
2018-09-26T06:15:34.101Z,9.40
2018-09-26T06:16:34.082Z,9.42
2018-09-26T06:17:34.063Z,9.51
2018-09-26T06:18:34.055Z,9.57
2018-09-26T06:19:34.029Z,9.63
2018-09-26T06:20:34.008Z,9.62
2018-09-26T06:21:33.990Z,9.77
2018-09-26T06:22:33.967Z,9.87
2018-09-26T06:23:33.951Z,9.94
2018-09-26T06:24:33.975Z,10.12
2018-09-26T06:25:33.915Z,10.18
2018-09-26T06:26:33.894Z,10.26
2018-09-26T06:27:33.880Z,10.23
2018-09-26T06:28:33.865Z,10.20
2018-09-26T06:29:33.840Z,10.18
2018-09-26T06:30:33.821Z,10.23
2018-09-26T06:31:33.801Z,10.23
2018-09-26T06:32:33.791Z,10.34
2018-09-26T06:33:33.766Z,10.36
2018-09-26T06:34:33.750Z,10.36
2018-09-26T06:35:33.729Z,10.31
2018-09-26T06:36:33.712Z,10.45
2018-09-26T06:37:33.692Z,10.55
2018-09-26T06:38:33.679Z,10.55
2018-09-26T06:39:33.658Z,10.60
2018-09-26T06:40:33.806Z,10.55
2018-09-26T06:41:33.621Z,10.76
2018-09-26T06:42:33.607Z,10.72
2018-09-26T06:43:33.583Z,10.97
2018-09-26T06:44:33.574Z,11.00
2018-09-26T06:45:33.550Z,10.98
2018-09-26T06:46:33.543Z,11.00
2018-09-26T06:47:33.531Z,11.00
2018-09-26T06:48:33.502Z,11.03
2018-09-26T06:49:33.476Z,11.22
2018-09-26T06:50:33.462Z,11.34
2018-09-26T06:51:33.450Z,11.31
2018-09-26T06:52:33.434Z,11.27
2018-09-26T06:53:33.413Z,11.43
2018-09-26T06:54:33.400Z,11.41
2018-09-26T06:55:33.376Z,11.46
2018-09-26T06:56:33.361Z,11.51
2018-09-26T06:57:33.340Z,11.56
2018-09-26T06:58:33.327Z,11.52
2018-09-26T06:59:33.311Z,11.58
2018-09-26T07:00:33.293Z,11.55
2018-09-26T07:01:33.275Z,11.49
2018-09-26T07:02:33.257Z,11.43
2018-09-26T07:03:33.241Z,11.48
2018-09-26T07:04:33.222Z,11.56
2018-09-26T07:05:33.206Z,11.33
2018-09-26T07:06:33.191Z,11.31
2018-09-26T07:07:33.173Z,11.36
2018-09-26T07:08:33.154Z,11.38
2018-09-26T07:09:33.141Z,11.52
2018-09-26T07:10:33.125Z,11.49
2018-09-26T07:11:33.110Z,11.55
2018-09-26T07:12:33.091Z,11.66
2018-09-26T07:13:33.071Z,11.74
2018-09-26T07:14:33.056Z,11.73
2018-09-26T07:15:33.042Z,11.64
2018-09-26T07:16:33.027Z,11.76
2018-09-26T07:17:33.007Z,11.89
2018-09-26T07:18:32.991Z,11.73
2018-09-26T07:19:32.974Z,11.64
2018-09-26T07:20:32.956Z,11.67
2018-09-26T07:21:32.943Z,11.69
2018-09-26T07:22:32.927Z,11.73
2018-09-26T07:23:32.909Z,11.76
2018-09-26T07:24:32.892Z,11.69
2018-09-26T07:25:32.878Z,11.91
2018-09-26T07:26:32.860Z,11.87
2018-09-26T07:27:32.844Z,12.03
2018-09-26T07:28:32.825Z,12.21
2018-09-26T07:29:32.813Z,12.35
2018-09-26T07:30:32.793Z,12.33
2018-09-26T07:31:32.819Z,12.44
2018-09-26T07:32:32.764Z,12.33
2018-09-26T07:33:32.754Z,12.33
2018-09-26T07:34:32.734Z,12.35
2018-09-26T07:35:32.717Z,12.44
2018-09-26T07:36:32.699Z,12.41
2018-09-26T07:37:32.685Z,12.63
2018-09-26T07:38:32.732Z,12.59
2018-09-26T07:39:32.652Z,12.66
2018-09-26T07:40:32.651Z,12.69
2018-09-26T07:41:32.621Z,12.68
2018-09-26T07:42:32.606Z,12.69
2018-09-26T07:43:32.589Z,12.76
2018-09-26T07:44:32.584Z,12.73
2018-09-26T07:45:32.734Z,12.72
2018-09-26T07:46:32.543Z,12.93
2018-09-26T07:47:32.525Z,13.01
2018-09-26T07:48:32.514Z,12.96
2018-09-26T07:49:32.494Z,13.08
2018-09-26T07:50:32.493Z,13.23
2018-09-26T07:51:32.465Z,13.42
2018-09-26T07:52:32.450Z,13.54
2018-09-26T07:53:32.439Z,13.85
2018-09-26T07:54:32.424Z,13.86
2018-09-26T07:55:32.405Z,13.91
2018-09-26T07:56:32.396Z,13.55
2018-09-26T07:57:32.375Z,13.21
2018-09-26T07:58:32.363Z,13.19
2018-09-26T07:59:32.348Z,13.24
2018-09-26T08:00:32.371Z,13.40
2018-09-26T08:01:32.324Z,13.54
2018-09-26T08:02:32.308Z,13.58
2018-09-26T08:03:32.289Z,13.88
2018-09-26T08:04:32.274Z,13.80
2018-09-26T08:05:32.261Z,13.71
2018-09-26T08:06:32.244Z,14.01
2018-09-26T08:07:32.240Z,14.13
2018-09-26T08:08:32.223Z,14.19
2018-09-26T08:09:32.204Z,14.11
2018-09-26T08:10:32.190Z,13.97
2018-09-26T08:11:32.222Z,14.18
2018-09-26T08:12:32.164Z,14.21
2018-09-26T08:13:32.150Z,13.86
2018-09-26T08:14:32.135Z,13.93
2018-09-26T08:15:32.124Z,13.75
2018-09-26T08:16:32.108Z,14.04
2018-09-26T08:17:32.094Z,14.49
2018-09-26T08:18:32.156Z,14.77
2018-09-26T08:19:32.068Z,14.71
2018-09-26T08:20:32.055Z,14.86
2018-09-26T08:21:32.047Z,14.79
2018-09-26T08:22:32.039Z,14.56
2018-09-26T08:23:32.017Z,14.44
2018-09-26T08:24:32.004Z,14.36
2018-09-26T08:25:31.999Z,14.15
2018-09-26T08:26:31.985Z,14.21
2018-09-26T08:27:31.973Z,14.59
2018-09-26T08:28:31.961Z,14.96
2018-09-26T08:29:31.939Z,14.89
2018-09-26T08:30:31.933Z,15.11
2018-09-26T08:31:31.915Z,15.30
2018-09-26T08:32:31.904Z,15.29
2018-09-26T08:33:31.892Z,15.54
2018-09-26T08:34:31.881Z,14.99
2018-09-26T08:35:31.866Z,15.14
2018-09-26T08:36:31.855Z,15.08
2018-09-26T08:37:31.843Z,15.19
2018-09-26T08:38:31.831Z,14.93
2018-09-26T08:39:31.817Z,15.14
2018-09-26T08:40:31.814Z,15.30
2018-09-26T08:41:31.802Z,15.44
2018-09-26T08:42:31.779Z,15.76
2018-09-26T08:43:31.769Z,15.90
2018-09-26T08:44:31.765Z,15.91
2018-09-26T08:45:31.747Z,15.87
2018-09-26T08:46:31.735Z,16.08
2018-09-26T08:47:31.719Z,16.14
2018-09-26T08:48:31.708Z,16.51
2018-09-26T08:49:31.699Z,16.62
2018-09-26T08:50:31.685Z,17.12
2018-09-26T08:51:31.672Z,16.91
2018-09-26T08:52:31.661Z,17.28
2018-09-26T08:53:31.672Z,17.35
2018-09-26T08:54:31.637Z,17.71
2018-09-26T08:55:31.633Z,17.46
2018-09-26T08:56:31.627Z,17.37
2018-09-26T08:57:31.604Z,17.22
2018-09-26T08:58:31.597Z,17.13
2018-09-26T08:59:31.597Z,17.34
2018-09-26T09:00:31.581Z,17.14
2018-09-26T09:01:31.561Z,17.45
2018-09-26T09:02:31.563Z,17.37
2018-09-26T09:03:31.538Z,17.50
2018-09-26T09:04:31.536Z,17.38
2018-09-26T09:05:31.518Z,17.16
2018-09-26T09:06:31.521Z,17.10
2018-09-26T09:07:31.502Z,17.50
2018-09-26T09:08:31.510Z,17.47
2018-09-26T09:09:31.481Z,17.65
2018-09-26T09:10:31.471Z,18.06
2018-09-26T09:11:31.562Z,18.03
2018-09-26T09:12:31.449Z,18.31
2018-09-26T09:13:31.438Z,18.41
2018-09-26T09:14:31.523Z,18.63
2018-09-26T09:15:31.419Z,18.89
2018-09-26T09:16:31.406Z,19.01
2018-09-26T09:17:31.404Z,19.12
2018-09-26T09:18:31.393Z,19.16
2018-09-26T09:19:31.375Z,18.91
2018-09-26T09:20:31.366Z,18.56
2018-09-26T09:21:31.365Z,18.17
2018-09-26T09:22:31.347Z,17.96
2018-09-26T09:23:31.330Z,18.23
2018-09-26T09:24:31.320Z,17.56
2018-09-26T09:25:31.310Z,17.86
2018-09-26T09:26:31.300Z,17.52
2018-09-26T09:27:31.344Z,17.73
2018-09-26T09:28:31.292Z,17.83
2018-09-26T09:29:31.267Z,17.79
2018-09-26T09:30:31.262Z,17.97
2018-09-26T09:31:31.251Z,18.41
2018-09-26T09:32:31.245Z,18.42
2018-09-26T09:33:31.227Z,18.74
2018-09-26T09:34:31.223Z,19.32
2018-09-26T09:35:31.204Z,19.09
2018-09-26T09:36:31.254Z,19.17
2018-09-26T09:37:31.185Z,18.82
2018-09-26T09:38:31.172Z,19.31
2018-09-26T09:39:31.220Z,19.42
2018-09-26T09:40:31.159Z,19.04
2018-09-26T09:41:31.140Z,18.48
2018-09-26T09:42:31.134Z,18.60
2018-09-26T09:43:31.128Z,18.30
2018-09-26T09:44:31.175Z,18.30
2018-09-26T09:45:31.102Z,18.49
2018-09-26T09:46:31.101Z,18.66
2018-09-26T09:47:31.081Z,18.21
2018-09-26T09:48:31.071Z,18.18
2018-09-26T09:49:31.061Z,18.24
2018-09-26T09:50:31.049Z,18.08
2018-09-26T09:51:31.090Z,18.34
2018-09-26T09:52:31.033Z,18.52
2018-09-26T09:53:31.016Z,18.18
2018-09-26T09:54:31.004Z,17.52
2018-09-26T09:55:30.995Z,17.45
2018-09-26T09:56:30.985Z,17.25
2018-09-26T09:57:30.977Z,16.90
2018-09-26T09:58:30.966Z,17.19
2018-09-26T09:59:30.946Z,17.52
2018-09-26T10:00:30.937Z,17.88
2018-09-26T10:01:30.924Z,18.06
2018-09-26T10:02:30.946Z,18.27
2018-09-26T10:03:30.906Z,18.27
2018-09-26T10:04:30.890Z,18.38
2018-09-26T10:05:30.879Z,18.60
2018-09-26T10:06:30.873Z,18.68
2018-09-26T10:07:30.856Z,18.83
2018-09-26T10:08:30.844Z,18.79
2018-09-26T10:09:30.835Z,18.85
2018-09-26T10:10:30.827Z,19.01
2018-09-26T10:11:30.812Z,18.48
2018-09-26T10:12:30.799Z,18.63
2018-09-26T10:13:30.795Z,18.66
2018-09-26T10:14:30.851Z,18.74
2018-09-26T10:15:30.773Z,18.74
2018-09-26T10:16:30.757Z,18.12
2018-09-26T10:17:30.809Z,18.42
2018-09-26T10:18:30.733Z,18.48
2018-09-26T10:19:30.723Z,18.52
2018-09-26T10:20:30.715Z,18.39
2018-09-26T10:21:30.700Z,18.20
2018-09-26T10:22:30.691Z,18.09
2018-09-26T10:23:30.677Z,17.87
2018-09-26T10:24:30.669Z,18.05
2018-09-26T10:25:30.658Z,17.91
2018-09-26T10:26:30.647Z,18.26
2018-09-26T10:27:30.634Z,18.41
2018-09-26T10:28:30.627Z,18.68
2018-09-26T10:29:30.609Z,18.66
2018-09-26T10:30:30.599Z,18.78
2018-09-26T10:31:30.590Z,18.75
2018-09-26T10:32:30.580Z,18.75
2018-09-26T10:33:30.565Z,18.96
2018-09-26T10:34:30.556Z,19.07
2018-09-26T10:35:30.545Z,18.79
2018-09-26T10:36:30.530Z,18.52
2018-09-26T10:37:30.526Z,18.56
2018-09-26T10:38:30.511Z,18.61
2018-09-26T10:39:30.501Z,18.42
2018-09-26T10:40:30.488Z,18.76
2018-09-26T10:41:30.478Z,19.13
2018-09-26T10:42:30.470Z,19.16
2018-09-26T10:43:30.458Z,19.00
2018-09-26T10:44:30.448Z,18.86
2018-09-26T10:45:30.434Z,18.71
2018-09-26T10:46:30.471Z,18.75
2018-09-26T10:47:30.409Z,18.68
2018-09-26T10:48:30.398Z,18.96
2018-09-26T10:49:30.396Z,18.86
2018-09-26T10:50:30.379Z,18.94
2018-09-26T10:51:30.368Z,19.35
2018-09-26T10:52:30.357Z,19.31
2018-09-26T10:53:30.348Z,19.22
2018-09-26T10:54:30.335Z,19.05
2018-09-26T10:55:30.328Z,19.01
2018-09-26T10:56:30.459Z,19.07
2018-09-26T10:57:30.300Z,19.34
2018-09-26T10:58:30.285Z,19.32
2018-09-26T10:59:30.280Z,19.31
2018-09-26T11:00:30.268Z,19.30
2018-09-26T11:01:30.255Z,18.86
2018-09-26T11:02:30.318Z,18.85
2018-09-26T11:03:30.235Z,18.97
2018-09-26T11:04:30.224Z,19.04
2018-09-26T11:05:30.227Z,19.07
2018-09-26T11:06:30.206Z,18.85
2018-09-26T11:07:30.186Z,18.82
2018-09-26T11:08:30.178Z,18.81
2018-09-26T11:09:30.166Z,19.04
2018-09-26T11:10:30.153Z,19.09
2018-09-26T11:11:30.147Z,19.27
2018-09-26T11:12:30.144Z,19.50
2018-09-26T11:13:30.126Z,19.62
2018-09-26T11:14:30.110Z,19.82
2018-09-26T11:15:30.095Z,19.93
2018-09-26T11:16:30.084Z,20.19
2018-09-26T11:17:30.075Z,20.26
2018-09-26T11:18:30.062Z,20.56
2018-09-26T11:19:30.048Z,20.53
2018-09-26T11:20:30.042Z,20.68
2018-09-26T11:21:30.031Z,20.22
2018-09-26T11:22:30.027Z,20.22
2018-09-26T11:23:30.004Z,20.30
2018-09-26T11:24:29.998Z,20.36
2018-09-26T11:25:29.988Z,20.58
2018-09-26T11:26:30.038Z,20.67
2018-09-26T11:27:29.961Z,20.60
2018-09-26T11:28:29.951Z,19.96
2018-09-26T11:29:29.941Z,19.78
2018-09-26T11:30:29.929Z,19.64
2018-09-26T11:31:29.917Z,19.89
2018-09-26T11:32:29.909Z,20.15
2018-09-26T11:33:30.001Z,20.23
2018-09-26T11:34:29.894Z,20.55
2018-09-26T11:35:29.889Z,20.65
2018-09-26T11:36:29.865Z,20.90
2018-09-26T11:37:29.853Z,20.92
2018-09-26T11:38:29.847Z,21.00
2018-09-26T11:39:29.832Z,21.23
2018-09-26T11:40:29.820Z,21.20
2018-09-26T11:41:29.816Z,21.20
2018-09-26T11:42:29.801Z,21.03
2018-09-26T11:43:29.789Z,21.19
2018-09-26T11:44:29.783Z,21.37
2018-09-26T11:45:29.766Z,21.38
2018-09-26T11:46:29.764Z,21.32
2018-09-26T11:47:29.752Z,21.43
2018-09-26T11:48:29.735Z,21.50
2018-09-26T11:49:29.725Z,21.60
2018-09-26T11:50:29.714Z,21.10
2018-09-26T11:51:29.703Z,20.65
2018-09-26T11:52:29.693Z,20.68
2018-09-26T11:53:29.685Z,20.95
2018-09-26T11:54:29.674Z,21.14
2018-09-26T11:55:29.670Z,21.13
2018-09-26T11:56:29.744Z,21.10
2018-09-26T11:57:29.641Z,21.07
2018-09-26T11:58:29.632Z,21.05
2018-09-26T11:59:29.622Z,21.19
2018-09-26T12:00:29.612Z,21.38
2018-09-26T12:01:29.608Z,21.48
2018-09-26T12:02:29.685Z,21.58
2018-09-26T12:03:29.581Z,21.74
2018-09-26T12:04:29.576Z,21.66
2018-09-26T12:05:29.571Z,21.16
2018-09-26T12:06:29.547Z,21.28
2018-09-26T12:07:29.638Z,21.43
2018-09-26T12:08:29.528Z,21.75
2018-09-26T12:09:29.517Z,21.74
2018-09-26T12:10:29.509Z,21.67
2018-09-26T12:11:29.497Z,21.78
2018-09-26T12:12:29.490Z,21.78
2018-09-26T12:13:29.556Z,21.59
2018-09-26T12:14:29.508Z,21.55
2018-09-26T12:15:29.458Z,21.50
2018-09-26T12:16:29.450Z,21.75
2018-09-26T12:17:29.435Z,21.51
2018-09-26T12:18:29.429Z,21.51
2018-09-26T12:19:29.413Z,21.67
2018-09-26T12:20:29.406Z,21.35
2018-09-26T12:21:30.739Z,21.50
2018-09-26T12:22:29.417Z,21.51
2018-09-26T12:23:29.382Z,21.35
2018-09-26T12:24:29.368Z,21.56
2018-09-26T12:25:29.358Z,21.63
2018-09-26T12:26:29.340Z,21.75
2018-09-26T12:27:29.331Z,21.96
2018-09-26T12:28:29.325Z,22.22
2018-09-26T12:29:29.311Z,22.58
2018-09-26T12:30:29.303Z,22.64
2018-09-26T12:31:29.293Z,22.25
2018-09-26T12:32:29.280Z,22.34
2018-09-26T12:33:29.267Z,22.11
2018-09-26T12:34:29.259Z,21.97
2018-09-26T12:35:29.247Z,21.77
2018-09-26T12:36:29.241Z,21.90
2018-09-26T12:37:29.230Z,21.93
2018-09-26T12:38:29.227Z,22.15
2018-09-26T12:39:29.213Z,22.40
2018-09-26T12:40:29.200Z,22.51
2018-09-26T12:41:29.196Z,22.33
2018-09-26T12:42:29.182Z,22.59
2018-09-26T12:43:29.167Z,22.52
2018-09-26T12:44:29.194Z,22.53
2018-09-26T12:45:29.158Z,22.53
2018-09-26T12:46:29.142Z,22.71
2018-09-26T12:47:29.131Z,22.46
2018-09-26T12:48:29.170Z,22.48
2018-09-26T12:49:29.116Z,22.49
2018-09-26T12:50:29.101Z,22.62
2018-09-26T12:51:29.091Z,22.48
2018-09-26T12:52:29.076Z,22.48
2018-09-26T12:53:29.191Z,22.67
2018-09-26T12:54:29.063Z,22.55
2018-09-26T12:55:29.055Z,22.51
2018-09-26T12:56:29.038Z,22.55
2018-09-26T12:57:29.031Z,22.83
2018-09-26T12:58:29.027Z,22.99
2018-09-26T12:59:29.012Z,23.06
2018-09-26T13:00:29.127Z,23.11